sensor_id;sensor_type;location;lat;lon;timestamp;pressure;altitude;pressure_sealevel;temperature;humidity
68628;BME280;55611;48.602;9.490;2022-11-20T00:00:17;96350;;;9.6;63.5
68628;BME280;55611;48.602;9.490;2022-11-20T00:02:47;96360;;;9.7;63.5
68628;BME280;55611;48.602;9.490;2022-11-20T00:05:18;96360;;;9.7;64
68628;BME280;55611;48.602;9.490;2022-11-20T00:07:48;96350;;;9.7;64
68628;BME280;55611;48.602;9.490;2022-11-20T00:10:19;96350;;;9.7;63.5
68628;BME280;55611;48.602;9.490;2022-11-20T00:12:49;96350;;;9.7;63.5
68628;BME280;55611;48.602;9.490;2022-11-20T00:15:20;96350;;;9.6;63.5
68628;BME280;55611;48.602;9.490;2022-11-20T00:17:50;96360;;;9.6;63.5
68628;BME280;55611;48.602;9.490;2022-11-20T00:20:21;96360;;;9.6;63.5
68628;BME280;55611;48.602;9.490;2022-11-20T00:22:51;96360;;;9.5;63.5
68628;BME280;55611;48.602;9.490;2022-11-20T00:25:22;96370;;;9.5;63.5
68628;BME280;55611;48.602;9.490;2022-11-20T00:27:52;96370;;;9.5;63.5
68628;BME280;55611;48.602;9.490;2022-11-20T00:30:23;96370;;;9.5;63.5
68628;BME280;55611;48.602;9.490;2022-11-20T00:32:55;96370;;;9.5;63.5
68628;BME280;55611;48.602;9.490;2022-11-20T00:35:24;96370;;;9.5;63.5
68628;BME280;55611;48.602;9.490;2022-11-20T00:37:55;96370;;;9.5;63.5
68628;BME280;55611;48.602;9.490;2022-11-20T00:40:25;96370;;;9.5;63.5
68628;BME280;55611;48.602;9.490;2022-11-20T00:42:56;96370;;;9.4;63.5
68628;BME280;55611;48.602;9.490;2022-11-20T00:45:26;96370;;;9.4;63.5
68628;BME280;55611;48.602;9.490;2022-11-20T00:47:57;96370;;;9.5;63.5
68628;BME280;55611;48.602;9.490;2022-11-20T00:50:27;96370;;;9.5;63.5
68628;BME280;55611;48.602;9.490;2022-11-20T00:52:58;96380;;;9.4;63.5
68628;BME280;55611;48.602;9.490;2022-11-20T00:55:28;96380;;;9.4;63.5
68628;BME280;55611;48.602;9.490;2022-11-20T00:57:59;96380;;;9.4;63.5
68628;BME280;55611;48.602;9.490;2022-11-20T01:00:32;96380;;;9.4;63.5
68628;BME280;55611;48.602;9.490;2022-11-20T01:03:00;96380;;;9.4;63.5
68628;BME280;55611;48.602;9.490;2022-11-20T01:05:33;96380;;;9.4;63.5
68628;BME280;55611;48.602;9.490;2022-11-20T01:08:01;96380;;;9.3;63.5
68628;BME280;55611;48.602;9.490;2022-11-20T01:10:31;96380;;;9.3;63.5
68628;BME280;55611;48.602;9.490;2022-11-20T01:13:02;96380;;;9.4;63.5
68628;BME280;55611;48.602;9.490;2022-11-20T01:15:33;96390;;;9.4;63.5
68628;BME280;55611;48.602;9.490;2022-11-20T01:18:03;96380;;;9.4;63.5
68628;BME280;55611;48.602;9.490;2022-11-20T01:20:34;96380;;;9.4;63.5
68628;BME280;55611;48.602;9.490;2022-11-20T01:23:04;96390;;;9.3;63.5
68628;BME280;55611;48.602;9.490;2022-11-20T01:25:34;96380;;;9.3;63.5
68628;BME280;55611;48.602;9.490;2022-11-20T01:28:05;96380;;;9.3;63.5
68628;BME280;55611;48.602;9.490;2022-11-20T01:30:35;96380;;;9.2;64
68628;BME280;55611;48.602;9.490;2022-11-20T01:33:06;96380;;;9.2;64
68628;BME280;55611;48.602;9.490;2022-11-20T01:35:36;96380;;;9.3;64
68628;BME280;55611;48.602;9.490;2022-11-20T01:38:07;96390;;;9.4;63.5
68628;BME280;55611;48.602;9.490;2022-11-20T01:40:37;96390;;;9.3;63.5
68628;BME280;55611;48.602;9.490;2022-11-20T01:43:16;96390;;;9.3;63.5
68628;BME280;55611;48.602;9.490;2022-11-20T01:45:57;96390;;;9.2;63.5
68628;BME280;55611;48.602;9.490;2022-11-20T01:48:09;96390;;;9.3;63.5
68628;BME280;55611;48.602;9.490;2022-11-20T01:50:40;96400;;;9.3;63.5
68628;BME280;55611;48.602;9.490;2022-11-20T01:53:11;96380;;;9.3;63.5
68628;BME280;55611;48.602;9.490;2022-11-20T01:55:41;96390;;;9.4;63.5
68628;BME280;55611;48.602;9.490;2022-11-20T01:58:11;96380;;;9.4;63.5
68628;BME280;55611;48.602;9.490;2022-11-20T02:00:41;96380;;;9.3;63.5
68628;BME280;55611;48.602;9.490;2022-11-20T02:03:13;96380;;;9.3;63.5
68628;BME280;55611;48.602;9.490;2022-11-20T02:05:51;96390;;;9.3;63.5
68628;BME280;55611;48.602;9.490;2022-11-20T02:08:13;96390;;;9.2;63.5
68628;BME280;55611;48.602;9.490;2022-11-20T02:10:44;96390;;;9.2;63.5
68628;BME280;55611;48.602;9.490;2022-11-20T02:13:14;96380;;;9.2;63.5
68628;BME280;55611;48.602;9.490;2022-11-20T02:15:45;96370;;;9.2;63.5
68628;BME280;55611;48.602;9.490;2022-11-20T02:18:16;96380;;;9.1;63.5
68628;BME280;55611;48.602;9.490;2022-11-20T02:20:47;96380;;;9.1;63
68628;BME280;55611;48.602;9.490;2022-11-20T02:23:20;96380;;;9.1;63.5
68628;BME280;55611;48.602;9.490;2022-11-20T02:25:47;96390;;;9.1;63.5
68628;BME280;55611;48.602;9.490;2022-11-20T02:28:17;96380;;;9.1;63.5
68628;BME280;55611;48.602;9.490;2022-11-20T02:30:48;96380;;;9.2;63.5
68628;BME280;55611;48.602;9.490;2022-11-20T02:33:18;96380;;;9.2;63.5
68628;BME280;55611;48.602;9.490;2022-11-20T02:35:49;96370;;;9.2;63.5
68628;BME280;55611;48.602;9.490;2022-11-20T02:38:19;96380;;;9.2;63.5
68628;BME280;55611;48.602;9.490;2022-11-20T02:40:50;96380;;;9.3;63.5
68628;BME280;55611;48.602;9.490;2022-11-20T02:43:20;96380;;;9.3;63.5
68628;BME280;55611;48.602;9.490;2022-11-20T02:48:21;96380;;;9.3;63.5
68628;BME280;55611;48.602;9.490;2022-11-20T02:50:52;96380;;;9.2;63.5
68628;BME280;55611;48.602;9.490;2022-11-20T02:53:22;96380;;;9.3;63.5
68628;BME280;55611;48.602;9.490;2022-11-20T02:55:53;96380;;;9.3;63.5
68628;BME280;55611;48.602;9.490;2022-11-20T03:00:54;96380;;;9.2;63.5
68628;BME280;55611;48.602;9.490;2022-11-20T03:03:24;96380;;;9.1;63.5
68628;BME280;55611;48.602;9.490;2022-11-20T03:05:55;96380;;;9.2;63.5
68628;BME280;55611;48.602;9.490;2022-11-20T03:08:25;96370;;;9.2;64
68628;BME280;55611;48.602;9.490;2022-11-20T03:10:56;96380;;;9.3;64
68628;BME280;55611;48.602;9.490;2022-11-20T03:13:26;96370;;;9.3;64
68628;BME280;55611;48.602;9.490;2022-11-20T03:15:57;96380;;;9.3;64
68628;BME280;55611;48.602;9.490;2022-11-20T03:18:28;96380;;;9.4;64
68628;BME280;55611;48.602;9.490;2022-11-20T03:20:58;96370;;;9.4;64
68628;BME280;55611;48.602;9.490;2022-11-20T03:23:29;96370;;;9.5;63.5
68628;BME280;55611;48.602;9.490;2022-11-20T03:26:30;96370;;;9.4;63.5
68628;BME280;55611;48.602;9.490;2022-11-20T03:28:30;96380;;;9.4;63.5
68628;BME280;55611;48.602;9.490;2022-11-20T03:31:08;96380;;;9.4;64
68628;BME280;55611;48.602;9.490;2022-11-20T03:33:31;96380;;;9.5;64
68628;BME280;55611;48.602;9.490;2022-11-20T03:36:02;96380;;;9.4;64
68628;BME280;55611;48.602;9.490;2022-11-20T03:38:32;96380;;;9.5;64
68628;BME280;55611;48.602;9.490;2022-11-20T03:41:03;96380;;;9.5;63.5
68628;BME280;55611;48.602;9.490;2022-11-20T03:43:33;96390;;;9.5;63.5
68628;BME280;55611;48.602;9.490;2022-11-20T03:46:03;96390;;;9.4;63.5
68628;BME280;55611;48.602;9.490;2022-11-20T03:48:34;96390;;;9.4;64
68628;BME280;55611;48.602;9.490;2022-11-20T03:51:06;96390;;;9.5;64
68628;BME280;55611;48.602;9.490;2022-11-20T03:53:35;96390;;;9.6;64
68628;BME280;55611;48.602;9.490;2022-11-20T03:56:06;96390;;;9.6;64
68628;BME280;55611;48.602;9.490;2022-11-20T03:58:36;96380;;;9.6;64
68628;BME280;55611;48.602;9.490;2022-11-20T04:01:09;96390;;;9.5;64
68628;BME280;55611;48.602;9.490;2022-11-20T04:03:37;96380;;;9.6;64
68628;BME280;55611;48.602;9.490;2022-11-20T04:06:09;96390;;;9.7;63.5
68628;BME280;55611;48.602;9.490;2022-11-20T04:08:38;96390;;;9.7;63.5
68628;BME280;55611;48.602;9.490;2022-11-20T04:11:10;96390;;;9.7;63.5
68628;BME280;55611;48.602;9.490;2022-11-20T04:13:39;96390;;;9.6;63.5
68628;BME280;55611;48.602;9.490;2022-11-20T04:16:09;96380;;;9.7;63.5
68628;BME280;55611;48.602;9.490;2022-11-20T04:18:40;96390;;;9.7;63.5
68628;BME280;55611;48.602;9.490;2022-11-20T04:21:11;96380;;;9.8;63.5
68628;BME280;55611;48.602;9.490;2022-11-20T04:23:41;96380;;;9.7;63.5
68628;BME280;55611;48.602;9.490;2022-11-20T04:26:12;96380;;;9.8;63.5
68628;BME280;55611;48.602;9.490;2022-11-20T04:28:42;96370;;;9.8;63.5
68628;BME280;55611;48.602;9.490;2022-11-20T04:31:13;96370;;;9.9;63.5
68628;BME280;55611;48.602;9.490;2022-11-20T04:33:43;96370;;;9.9;63.5
68628;BME280;55611;48.602;9.490;2022-11-20T04:36:16;96370;;;9.9;63.5
68628;BME280;55611;48.602;9.490;2022-11-20T04:38:44;96370;;;9.9;63.5
68628;BME280;55611;48.602;9.490;2022-11-20T04:41:15;96370;;;9.8;63.5
68628;BME280;55611;48.602;9.490;2022-11-20T04:43:46;96380;;;10;63.5
68628;BME280;55611;48.602;9.490;2022-11-20T04:46:16;96370;;;9.9;63.5
68628;BME280;55611;48.602;9.490;2022-11-20T04:48:46;96370;;;9.9;63.5
68628;BME280;55611;48.602;9.490;2022-11-20T04:51:17;96360;;;9.9;63.5
68628;BME280;55611;48.602;9.490;2022-11-20T04:53:47;96350;;;9.8;63.5
68628;BME280;55611;48.602;9.490;2022-11-20T04:56:18;96350;;;9.9;63.5
68628;BME280;55611;48.602;9.490;2022-11-20T04:58:48;96350;;;9.9;63.5
68628;BME280;55611;48.602;9.490;2022-11-20T05:01:21;96360;;;9.9;63.5
68628;BME280;55611;48.602;9.490;2022-11-20T05:03:49;96360;;;9.9;63.5
68628;BME280;55611;48.602;9.490;2022-11-20T05:06:21;96350;;;9.8;63.5
68628;BME280;55611;48.602;9.490;2022-11-20T05:08:50;96350;;;9.7;63.5
68628;BME280;55611;48.602;9.490;2022-11-20T05:11:21;96350;;;9.8;63.5
68628;BME280;55611;48.602;9.490;2022-11-20T05:13:51;96360;;;9.8;63.5
68628;BME280;55611;48.602;9.490;2022-11-20T05:16:22;96350;;;9.7;63.5
68628;BME280;55611;48.602;9.490;2022-11-20T05:18:53;96350;;;9.7;64
68628;BME280;55611;48.602;9.490;2022-11-20T05:21:23;96360;;;9.9;64
68628;BME280;55611;48.602;9.490;2022-11-20T05:23:53;96350;;;9.9;63.5
68628;BME280;55611;48.602;9.490;2022-11-20T05:26:24;96360;;;9.9;63.5
68628;BME280;55611;48.602;9.490;2022-11-20T05:28:54;96360;;;9.8;64
68628;BME280;55611;48.602;9.490;2022-11-20T05:31:25;96360;;;9.8;64
68628;BME280;55611;48.602;9.490;2022-11-20T05:33:56;96360;;;9.9;64
68628;BME280;55611;48.602;9.490;2022-11-20T05:36:26;96360;;;9.9;64
68628;BME280;55611;48.602;9.490;2022-11-20T05:38:56;96360;;;9.9;64
68628;BME280;55611;48.602;9.490;2022-11-20T05:41:27;96360;;;9.9;64
68628;BME280;55611;48.602;9.490;2022-11-20T05:43:57;96360;;;10;64
68628;BME280;55611;48.602;9.490;2022-11-20T05:46:28;96350;;;10;64
68628;BME280;55611;48.602;9.490;2022-11-20T05:48:58;96350;;;9.9;64
68628;BME280;55611;48.602;9.490;2022-11-20T05:51:29;96350;;;10;64
68628;BME280;55611;48.602;9.490;2022-11-20T05:53:59;96360;;;10;64
68628;BME280;55611;48.602;9.490;2022-11-20T05:56:30;96360;;;9.9;64
68628;BME280;55611;48.602;9.490;2022-11-20T05:59:00;96360;;;9.9;64
68628;BME280;55611;48.602;9.490;2022-11-20T06:01:31;96360;;;10;64
68628;BME280;55611;48.602;9.490;2022-11-20T06:04:02;96360;;;9.9;64
68628;BME280;55611;48.602;9.490;2022-11-20T06:06:32;96360;;;9.9;64
68628;BME280;55611;48.602;9.490;2022-11-20T06:09:02;96360;;;10;64
68628;BME280;55611;48.602;9.490;2022-11-20T06:11:33;96350;;;9.9;64
68628;BME280;55611;48.602;9.490;2022-11-20T06:14:04;96360;;;9.9;63.5
68628;BME280;55611;48.602;9.490;2022-11-20T06:16:34;96360;;;10;63.5
68628;BME280;55611;48.602;9.490;2022-11-20T06:19:05;96360;;;10;63.5
68628;BME280;55611;48.602;9.490;2022-11-20T06:21:35;96360;;;9.9;63.5
68628;BME280;55611;48.602;9.490;2022-11-20T06:24:06;96360;;;9.8;64
68628;BME280;55611;48.602;9.490;2022-11-20T06:26:36;96370;;;9.9;64
68628;BME280;55611;48.602;9.490;2022-11-20T06:29:07;96360;;;9.8;64
68628;BME280;55611;48.602;9.490;2022-11-20T06:31:37;96360;;;9.8;64
68628;BME280;55611;48.602;9.490;2022-11-20T06:34:08;96370;;;9.8;64
68628;BME280;55611;48.602;9.490;2022-11-20T06:36:38;96380;;;9.8;64
68628;BME280;55611;48.602;9.490;2022-11-20T06:39:09;96370;;;9.8;64
68628;BME280;55611;48.602;9.490;2022-11-20T06:41:39;96370;;;9.9;64
68628;BME280;55611;48.602;9.490;2022-11-20T06:44:10;96370;;;9.9;63.5
68628;BME280;55611;48.602;9.490;2022-11-20T06:46:40;96360;;;9.9;63.5
68628;BME280;55611;48.602;9.490;2022-11-20T06:49:11;96380;;;9.8;64
68628;BME280;55611;48.602;9.490;2022-11-20T06:51:41;96380;;;9.9;63.5
68628;BME280;55611;48.602;9.490;2022-11-20T06:54:12;96370;;;9.9;64
68628;BME280;55611;48.602;9.490;2022-11-20T06:56:45;96380;;;9.9;63.5
68628;BME280;55611;48.602;9.490;2022-11-20T06:59:13;96390;;;9.9;63.5
68628;BME280;55611;48.602;9.490;2022-11-20T07:01:43;96390;;;9.9;63.5
68628;BME280;55611;48.602;9.490;2022-11-20T07:04:14;96380;;;9.8;64
68628;BME280;55611;48.602;9.490;2022-11-20T07:06:44;96380;;;9.9;64
68628;BME280;55611;48.602;9.490;2022-11-20T07:09:15;96380;;;9.8;64
68628;BME280;55611;48.602;9.490;2022-11-20T07:11:45;96390;;;9.7;64
68628;BME280;55611;48.602;9.490;2022-11-20T07:14:16;96370;;;9.8;64
68628;BME280;55611;48.602;9.490;2022-11-20T07:16:47;96390;;;9.9;64
68628;BME280;55611;48.602;9.490;2022-11-20T07:19:17;96380;;;9.9;64
68628;BME280;55611;48.602;9.490;2022-11-20T07:21:47;96390;;;9.9;64
68628;BME280;55611;48.602;9.490;2022-11-20T07:24:18;96380;;;10;64
68628;BME280;55611;48.602;9.490;2022-11-20T07:26:48;96380;;;10;63.5
68628;BME280;55611;48.602;9.490;2022-11-20T07:29:19;96390;;;10;63.5
68628;BME280;55611;48.602;9.490;2022-11-20T07:31:49;96380;;;10;63.5
68628;BME280;55611;48.602;9.490;2022-11-20T07:34:20;96390;;;10;63.5
68628;BME280;55611;48.602;9.490;2022-11-20T07:36:51;96390;;;10;64
68628;BME280;55611;48.602;9.490;2022-11-20T07:39:21;96390;;;10;64
68628;BME280;55611;48.602;9.490;2022-11-20T07:41:52;96390;;;10;64
68628;BME280;55611;48.602;9.490;2022-11-20T07:44:22;96390;;;10;64
68628;BME280;55611;48.602;9.490;2022-11-20T07:46:53;96390;;;10;64
68628;BME280;55611;48.602;9.490;2022-11-20T07:49:23;96400;;;10.1;64
68628;BME280;55611;48.602;9.490;2022-11-20T07:51:54;96400;;;10.1;64
68628;BME280;55611;48.602;9.490;2022-11-20T07:54:24;96390;;;10.1;64
68628;BME280;55611;48.602;9.490;2022-11-20T07:56:55;96390;;;10.2;64
68628;BME280;55611;48.602;9.490;2022-11-20T07:59:25;96390;;;10.2;64
68628;BME280;55611;48.602;9.490;2022-11-20T08:01:56;96380;;;10.2;64
68628;BME280;55611;48.602;9.490;2022-11-20T08:04:26;96380;;;10.3;64
68628;BME280;55611;48.602;9.490;2022-11-20T08:06:57;96390;;;10.3;64
68628;BME280;55611;48.602;9.490;2022-11-20T08:09:27;96390;;;10.3;63.5
68628;BME280;55611;48.602;9.490;2022-11-20T08:11:58;96400;;;10.3;64
68628;BME280;55611;48.602;9.490;2022-11-20T08:14:28;96390;;;10.3;64
68628;BME280;55611;48.602;9.490;2022-11-20T08:16:59;96390;;;10.4;64
68628;BME280;55611;48.602;9.490;2022-11-20T08:19:29;96390;;;10.4;64
68628;BME280;55611;48.602;9.490;2022-11-20T08:22:00;96390;;;10.5;64
68628;BME280;55611;48.602;9.490;2022-11-20T08:24:30;96390;;;10.6;64
68628;BME280;55611;48.602;9.490;2022-11-20T08:27:01;96400;;;10.7;63.5
68628;BME280;55611;48.602;9.490;2022-11-20T08:29:31;96390;;;10.7;63.5
68628;BME280;55611;48.602;9.490;2022-11-20T08:32:02;96400;;;10.7;63.5
68628;BME280;55611;48.602;9.490;2022-11-20T08:34:32;96400;;;10.8;63.5
68628;BME280;55611;48.602;9.490;2022-11-20T08:37:03;96400;;;10.9;63.5
68628;BME280;55611;48.602;9.490;2022-11-20T08:39:33;96410;;;10.8;63.5
68628;BME280;55611;48.602;9.490;2022-11-20T08:42:07;96420;;;10.7;63.5
68628;BME280;55611;48.602;9.490;2022-11-20T08:44:34;96410;;;10.7;63.5
68628;BME280;55611;48.602;9.490;2022-11-20T08:47:05;96420;;;10.6;64
68628;BME280;55611;48.602;9.490;2022-11-20T08:49:35;96410;;;10.7;64
68628;BME280;55611;48.602;9.490;2022-11-20T08:52:06;96410;;;10.9;63.5
68628;BME280;55611;48.602;9.490;2022-11-20T08:54:36;96410;;;10.8;63.5
68628;BME280;55611;48.602;9.490;2022-11-20T08:57:07;96420;;;10.8;63.5
68628;BME280;55611;48.602;9.490;2022-11-20T08:59:37;96420;;;10.7;64
68628;BME280;55611;48.602;9.490;2022-11-20T09:02:08;96430;;;10.7;64
68628;BME280;55611;48.602;9.490;2022-11-20T09:04:39;96420;;;10.6;64
68628;BME280;55611;48.602;9.490;2022-11-20T09:07:09;96420;;;10.6;64
68628;BME280;55611;48.602;9.490;2022-11-20T09:09:40;96420;;;10.5;64
68628;BME280;55611;48.602;9.490;2022-11-20T09:12:10;96420;;;10.6;64
68628;BME280;55611;48.602;9.490;2022-11-20T09:14:41;96420;;;10.6;63.5
68628;BME280;55611;48.602;9.490;2022-11-20T09:17:11;96420;;;10.6;64
68628;BME280;55611;48.602;9.490;2022-11-20T09:19:42;96430;;;10.6;63.5
68628;BME280;55611;48.602;9.490;2022-11-20T09:22:12;96410;;;10.6;64
68628;BME280;55611;48.602;9.490;2022-11-20T09:24:43;96420;;;10.6;64
68628;BME280;55611;48.602;9.490;2022-11-20T09:27:13;96430;;;10.7;64
68628;BME280;55611;48.602;9.490;2022-11-20T09:29:44;96430;;;10.5;64
68628;BME280;55611;48.602;9.490;2022-11-20T09:32:14;96420;;;10.6;64
68628;BME280;55611;48.602;9.490;2022-11-20T09:34:45;96420;;;10.5;64
68628;BME280;55611;48.602;9.490;2022-11-20T09:37:15;96430;;;10.5;64
68628;BME280;55611;48.602;9.490;2022-11-20T09:39:46;96430;;;10.6;64
68628;BME280;55611;48.602;9.490;2022-11-20T09:42:20;96430;;;10.6;64
68628;BME280;55611;48.602;9.490;2022-11-20T09:44:49;96430;;;10.7;63.5
68628;BME280;55611;48.602;9.490;2022-11-20T09:47:24;96430;;;10.8;63.5
68628;BME280;55611;48.602;9.490;2022-11-20T09:50:23;96430;;;10.8;63.5
68628;BME280;55611;48.602;9.490;2022-11-20T09:52:22;96450;;;10.8;63.5
68628;BME280;55611;48.602;9.490;2022-11-20T09:54:49;96440;;;10.7;63.5
68628;BME280;55611;48.602;9.490;2022-11-20T09:57:21;96450;;;10.7;63.5
68628;BME280;55611;48.602;9.490;2022-11-20T09:59:51;96460;;;10.7;63.5
68628;BME280;55611;48.602;9.490;2022-11-20T10:02:26;96460;;;10.7;63.5
68628;BME280;55611;48.602;9.490;2022-11-20T10:04:53;96450;;;10.5;64
68628;BME280;55611;48.602;9.490;2022-11-20T10:07:23;96450;;;10.3;64
68628;BME280;55611;48.602;9.490;2022-11-20T10:09:53;96450;;;10.4;64
68628;BME280;55611;48.602;9.490;2022-11-20T10:18:31;96450;;;10.4;64
68628;BME280;55611;48.602;9.490;2022-11-20T10:20:14;96450;;;10.4;64
68628;BME280;55611;48.602;9.490;2022-11-20T10:22:32;96450;;;10.3;64
68628;BME280;55611;48.602;9.490;2022-11-20T10:24:56;96450;;;10.3;64
68628;BME280;55611;48.602;9.490;2022-11-20T10:27:37;96450;;;10.3;64
68628;BME280;55611;48.602;9.490;2022-11-20T10:30:00;96440;;;10.3;64
68628;BME280;55611;48.602;9.490;2022-11-20T10:32:29;96460;;;10.3;64
68628;BME280;55611;48.602;9.490;2022-11-20T10:34:59;96440;;;10.3;64
68628;BME280;55611;48.602;9.490;2022-11-20T10:37:29;96460;;;10.2;64
68628;BME280;55611;48.602;9.490;2022-11-20T10:40:01;96440;;;10.3;64
68628;BME280;55611;48.602;9.490;2022-11-20T10:42:31;96440;;;10.3;64
68628;BME280;55611;48.602;9.490;2022-11-20T10:45:02;96460;;;10.5;64
68628;BME280;55611;48.602;9.490;2022-11-20T10:47:30;96450;;;10.4;64
68628;BME280;55611;48.602;9.490;2022-11-20T10:50:03;96440;;;10.3;63.5
68628;BME280;55611;48.602;9.490;2022-11-20T10:52:42;96440;;;10.3;64
68628;BME280;55611;48.602;9.490;2022-11-20T10:55:06;96450;;;10.3;64
68628;BME280;55611;48.602;9.490;2022-11-20T10:57:46;96440;;;10.3;64
68628;BME280;55611;48.602;9.490;2022-11-20T11:00:06;96440;;;10.2;64
68628;BME280;55611;48.602;9.490;2022-11-20T11:02:35;96440;;;10.3;64
68628;BME280;55611;48.602;9.490;2022-11-20T11:05:08;96430;;;10.2;64
68628;BME280;55611;48.602;9.490;2022-11-20T11:07:35;96430;;;10.3;64
68628;BME280;55611;48.602;9.490;2022-11-20T11:10:13;96430;;;10.4;64
68628;BME280;55611;48.602;9.490;2022-11-20T11:12:35;96430;;;10.4;64
68628;BME280;55611;48.602;9.490;2022-11-20T11:15:11;96430;;;10.3;64
68628;BME280;55611;48.602;9.490;2022-11-20T11:17:36;96420;;;10.2;64
68628;BME280;55611;48.602;9.490;2022-11-20T11:20:15;96420;;;10.3;64
68628;BME280;55611;48.602;9.490;2022-11-20T11:22:45;96430;;;10.4;64
68628;BME280;55611;48.602;9.490;2022-11-20T11:25:08;96420;;;10.4;64
68628;BME280;55611;48.602;9.490;2022-11-20T11:27:45;96420;;;10.5;63.5
68628;BME280;55611;48.602;9.490;2022-11-20T11:30:16;96420;;;10.4;63.5
68628;BME280;55611;48.602;9.490;2022-11-20T11:32:39;96410;;;10.4;63.5
68628;BME280;55611;48.602;9.490;2022-11-20T11:35:25;96420;;;10.4;64
68628;BME280;55611;48.602;9.490;2022-11-20T11:37:40;96430;;;10.5;64
68628;BME280;55611;48.602;9.490;2022-11-20T11:40:11;96410;;;10.4;64
68628;BME280;55611;48.602;9.490;2022-11-20T11:42:43;96410;;;10.5;64
68628;BME280;55611;48.602;9.490;2022-11-20T11:45:13;96400;;;10.7;64
68628;BME280;55611;48.602;9.490;2022-11-20T11:47:45;96390;;;10.7;64
68628;BME280;55611;48.602;9.490;2022-11-20T11:50:14;96400;;;10.7;64
68628;BME280;55611;48.602;9.490;2022-11-20T11:53:16;96400;;;10.7;64
